createdAt,value
2023-04-22T00:02:20.843Z,26.00
2023-04-22T00:05:30.499Z,26.00
2023-04-22T00:08:44.355Z,26.00
2023-04-22T00:11:56.299Z,25.90
2023-04-22T00:15:07.371Z,26.00
2023-04-22T00:18:20.398Z,25.90
2023-04-22T00:21:28.955Z,25.90
2023-04-22T00:24:41.499Z,25.90
2023-04-22T00:27:53.058Z,25.90
2023-04-22T00:31:03.962Z,25.90
2023-04-22T00:34:14.684Z,25.90
2023-04-22T00:37:27.118Z,25.90
2023-04-22T00:40:40.493Z,25.80
2023-04-22T00:43:54.132Z,25.80
2023-04-22T00:47:04.206Z,25.80
2023-04-22T00:50:17.217Z,25.80
2023-04-22T00:53:27.980Z,25.80
2023-04-22T00:56:41.520Z,25.80
2023-04-22T00:59:53.949Z,25.70
2023-04-22T01:03:05.144Z,25.80
2023-04-22T01:06:15.015Z,25.80
2023-04-22T01:09:25.872Z,25.70
2023-04-22T01:12:37.820Z,25.70
2023-04-22T01:15:49.135Z,25.70
2023-04-22T01:18:58.017Z,25.70
2023-04-22T01:22:07.519Z,25.70
2023-04-22T01:25:16.490Z,25.60
2023-04-22T01:28:27.844Z,25.60
2023-04-22T01:31:39.557Z,25.60
2023-04-22T01:34:49.963Z,25.60
2023-04-22T01:38:01.733Z,25.60
2023-04-22T01:41:12.770Z,25.50
2023-04-22T01:44:23.501Z,25.50
2023-04-22T01:47:35.214Z,25.50
2023-04-22T01:50:47.528Z,25.60
2023-04-22T01:53:57.654Z,25.60
2023-04-22T01:57:12.076Z,25.60
2023-04-22T02:00:27.181Z,25.60
2023-04-22T02:03:35.310Z,25.60
2023-04-22T02:06:46.679Z,25.60
2023-04-22T02:09:57.741Z,25.50
2023-04-22T02:13:08.532Z,25.50
2023-04-22T02:16:20.367Z,25.50
2023-04-22T02:19:29.307Z,25.50
2023-04-22T02:22:39.683Z,25.50
2023-04-22T02:25:52.712Z,25.50
2023-04-22T02:29:02.816Z,25.50
2023-04-22T02:32:13.136Z,25.50
2023-04-22T02:35:24.411Z,25.50
2023-04-22T02:38:35.597Z,25.50
2023-04-22T02:41:43.835Z,25.50
2023-04-22T02:44:55.934Z,25.40
2023-04-22T02:48:07.236Z,25.40
2023-04-22T02:51:15.415Z,25.40
2023-04-22T02:54:26.073Z,25.40
2023-04-22T02:57:37.062Z,25.40
2023-04-22T03:00:48.558Z,25.40
2023-04-22T03:03:58.489Z,25.40
2023-04-22T03:07:08.110Z,25.40
2023-04-22T03:10:18.967Z,25.30
2023-04-22T03:13:31.120Z,25.30
2023-04-22T03:16:41.923Z,25.40
2023-04-22T03:19:52.918Z,25.40
2023-04-22T03:23:03.304Z,25.30
2023-04-22T03:26:14.287Z,25.30
2023-04-22T03:29:23.862Z,25.30
2023-04-22T03:32:39.962Z,25.30
2023-04-22T03:35:50.259Z,25.30
2023-04-22T03:39:03.481Z,25.30
2023-04-22T03:42:13.229Z,25.20
2023-04-22T03:45:25.708Z,25.20
2023-04-22T03:48:36.476Z,25.30
2023-04-22T03:51:49.868Z,25.20
2023-04-22T03:55:00.306Z,25.20
2023-04-22T03:58:11.461Z,25.20
2023-04-22T04:01:21.480Z,25.20
2023-04-22T04:04:33.472Z,25.20
2023-04-22T04:07:47.752Z,25.20
2023-04-22T04:10:59.118Z,25.10
2023-04-22T04:14:11.617Z,25.10
2023-04-22T04:17:25.485Z,25.10
2023-04-22T04:20:34.163Z,25.10
2023-04-22T04:23:43.769Z,25.10
2023-04-22T04:26:55.237Z,25.00
2023-04-22T04:30:07.971Z,25.00
2023-04-22T04:33:18.058Z,25.10
2023-04-22T04:36:32.025Z,25.00
2023-04-22T04:39:42.890Z,25.00
2023-04-22T04:42:55.046Z,25.00
2023-04-22T04:46:06.080Z,25.00
2023-04-22T04:49:16.281Z,25.00
2023-04-22T04:52:29.085Z,25.00
2023-04-22T04:55:42.196Z,24.90
2023-04-22T04:58:56.972Z,24.90
2023-04-22T05:02:08.467Z,24.90
2023-04-22T05:05:24.859Z,24.90
2023-04-22T05:08:34.185Z,24.90
2023-04-22T05:11:45.655Z,24.90
2023-04-22T05:14:58.359Z,24.90
2023-04-22T05:18:09.351Z,24.90
2023-04-22T05:21:20.945Z,24.90
2023-04-22T05:24:30.595Z,24.90
2023-04-22T05:27:41.481Z,24.80
2023-04-22T05:30:53.196Z,24.70
2023-04-22T05:34:06.776Z,24.80
2023-04-22T05:37:17.437Z,24.80
2023-04-22T05:40:29.238Z,24.80
2023-04-22T05:43:40.964Z,24.70
2023-04-22T05:46:50.690Z,24.70
2023-04-22T05:50:01.002Z,24.70
2023-04-22T05:53:12.467Z,24.70
2023-04-22T05:56:21.625Z,24.70
2023-04-22T05:59:31.863Z,24.70
2023-04-22T06:02:40.243Z,24.70
2023-04-22T06:05:50.766Z,24.70
2023-04-22T06:09:04.010Z,24.70
2023-04-22T06:12:16.616Z,24.70
2023-04-22T06:15:26.220Z,24.70
2023-04-22T06:18:38.780Z,24.60
2023-04-22T06:21:49.832Z,24.70
2023-04-22T06:25:00.806Z,24.60
2023-04-22T06:28:09.668Z,24.60
2023-04-22T06:31:22.023Z,24.60
2023-04-22T06:34:34.552Z,24.60
2023-04-22T06:37:47.289Z,24.60
2023-04-22T06:40:54.810Z,24.50
2023-04-22T06:44:05.175Z,24.50
2023-04-22T06:47:17.313Z,24.50
2023-04-22T06:50:27.983Z,24.50
2023-04-22T06:53:38.371Z,24.50
2023-04-22T06:56:49.818Z,24.50
2023-04-22T07:00:02.649Z,24.40
2023-04-22T07:03:15.391Z,24.40
2023-04-22T07:06:26.206Z,24.50
2023-04-22T07:09:36.911Z,24.40
2023-04-22T07:12:50.377Z,24.40
2023-04-22T07:16:01.440Z,24.40
2023-04-22T07:19:11.091Z,24.40
2023-04-22T07:22:23.797Z,24.40
2023-04-22T07:25:33.629Z,24.30
2023-04-22T07:28:45.388Z,24.30
2023-04-22T07:31:56.514Z,24.30
2023-04-22T07:35:05.142Z,24.30
2023-04-22T07:38:15.895Z,24.40
2023-04-22T07:41:26.721Z,24.30
2023-04-22T07:44:39.303Z,24.30
2023-04-22T07:47:49.756Z,24.30
2023-04-22T07:50:59.489Z,24.30
2023-04-22T07:54:11.009Z,24.30
2023-04-22T07:57:20.745Z,24.30
2023-04-22T08:00:33.493Z,24.30
2023-04-22T08:03:44.788Z,24.30
2023-04-22T08:06:57.307Z,24.30
2023-04-22T08:10:08.707Z,24.20
2023-04-22T08:13:20.573Z,24.20
2023-04-22T08:16:30.655Z,24.10
2023-04-22T08:19:41.229Z,24.20
2023-04-22T08:22:52.235Z,24.20
2023-04-22T08:26:03.150Z,24.10
2023-04-22T08:29:16.332Z,24.10
2023-04-22T08:32:30.521Z,24.10
2023-04-22T08:35:52.761Z,24.10
2023-04-22T08:39:03.683Z,24.10
2023-04-22T08:42:14.209Z,24.10
2023-04-22T08:45:23.979Z,24.10
2023-04-22T08:48:35.536Z,24.10
2023-04-22T08:51:45.120Z,24.10
2023-04-22T08:54:55.611Z,24.10
2023-04-22T08:58:06.523Z,24.00
2023-04-22T09:01:18.437Z,23.90
2023-04-22T09:04:30.489Z,24.00
2023-04-22T09:07:45.105Z,24.10
2023-04-22T09:10:55.072Z,24.00
2023-04-22T09:14:06.710Z,23.90
2023-04-22T09:17:20.307Z,23.90
2023-04-22T09:20:35.687Z,24.00
2023-04-22T09:23:53.317Z,24.00
2023-04-22T09:27:08.601Z,23.90
2023-04-22T09:30:22.557Z,23.90
2023-04-22T09:33:30.274Z,23.90
2023-04-22T09:36:39.951Z,24.00
2023-04-22T09:39:49.775Z,23.90
2023-04-22T09:43:03.297Z,23.90
2023-04-22T09:46:15.510Z,23.80
2023-04-22T09:49:25.519Z,23.90
2023-04-22T09:52:36.786Z,23.90
2023-04-22T09:55:47.532Z,23.80
2023-04-22T09:58:58.496Z,23.80
2023-04-22T10:02:10.301Z,23.70
2023-04-22T10:05:19.715Z,23.80
2023-04-22T10:08:28.967Z,23.80
2023-04-22T10:11:36.724Z,23.80
2023-04-22T10:14:48.310Z,23.70
2023-04-22T10:17:59.795Z,23.80
2023-04-22T10:21:10.104Z,23.80
2023-04-22T10:24:22.995Z,23.80
2023-04-22T10:27:30.564Z,23.70
2023-04-22T10:30:41.972Z,23.70
2023-04-22T10:33:54.259Z,23.70
2023-04-22T10:37:04.921Z,23.70
2023-04-22T10:40:18.741Z,23.70
2023-04-22T10:43:45.831Z,23.70
2023-04-22T10:47:06.074Z,23.60
2023-04-22T10:50:23.508Z,23.60
2023-04-22T10:53:45.782Z,23.70
2023-04-22T10:57:09.353Z,23.60
2023-04-22T11:04:03.545Z,23.60
2023-04-22T11:07:36.355Z,23.70
2023-04-22T11:10:49.114Z,23.60
2023-04-22T11:13:58.358Z,23.60
2023-04-22T11:17:09.189Z,23.50
2023-04-22T11:20:18.938Z,23.60
2023-04-22T11:23:29.016Z,23.60
2023-04-22T11:26:45.518Z,23.50
2023-04-22T11:30:05.368Z,23.50
2023-04-22T11:33:14.909Z,23.50
2023-04-22T11:36:23.781Z,23.60
2023-04-22T11:39:59.715Z,23.60
2023-04-22T11:42:54.800Z,23.50
2023-04-22T11:46:07.036Z,23.50
2023-04-22T11:49:26.590Z,23.50
2023-04-22T11:52:49.913Z,23.50
2023-04-22T11:56:00.891Z,23.50
2023-04-22T11:59:13.549Z,23.40
2023-04-22T12:02:22.726Z,23.40
2023-04-22T12:05:44.994Z,23.40
2023-04-22T12:08:58.132Z,23.30
2023-04-22T12:12:08.716Z,23.30
2023-04-22T12:15:18.720Z,23.30
2023-04-22T12:18:39.292Z,23.40
2023-04-22T12:21:49.793Z,23.50
2023-04-22T12:25:03.943Z,23.50
2023-04-22T12:28:18.896Z,23.50
2023-04-22T12:31:28.770Z,23.50
2023-04-22T12:34:39.199Z,23.50
2023-04-22T12:37:47.412Z,23.60
2023-04-22T12:40:55.796Z,23.50
2023-04-22T12:44:06.709Z,23.60
2023-04-22T12:47:16.123Z,23.60
2023-04-22T12:50:28.132Z,23.60
2023-04-22T12:53:40.250Z,23.60
2023-04-22T12:56:49.663Z,23.60
2023-04-22T13:00:00.805Z,23.60
2023-04-22T13:03:14.896Z,23.70
2023-04-22T13:06:23.267Z,23.70
2023-04-22T13:09:33.659Z,23.70
2023-04-22T13:12:42.171Z,23.70
2023-04-22T13:15:54.578Z,23.70
2023-04-22T13:19:08.202Z,23.70
2023-04-22T13:22:20.423Z,23.80
2023-04-22T13:25:31.352Z,23.70
2023-04-22T13:28:44.119Z,23.70
2023-04-22T13:31:53.297Z,23.70
2023-04-22T13:35:03.129Z,23.70
2023-04-22T13:38:15.160Z,23.80
2023-04-22T13:41:24.667Z,23.70
2023-04-22T13:44:36.540Z,23.70
2023-04-22T13:47:46.695Z,23.70
2023-04-22T13:51:01.807Z,23.70
2023-04-22T13:54:13.209Z,23.70
2023-04-22T13:57:27.597Z,23.80
2023-04-22T14:00:38.033Z,23.80
2023-04-22T14:03:54.418Z,23.80
2023-04-22T14:07:06.366Z,23.80
2023-04-22T14:10:20.470Z,23.80
2023-04-22T14:13:32.341Z,23.80
2023-04-22T14:16:43.088Z,23.90
2023-04-22T14:19:54.186Z,23.80
2023-04-22T14:23:05.151Z,23.80
2023-04-22T14:26:14.526Z,23.80
2023-04-22T14:29:26.738Z,23.70
2023-04-22T14:32:37.228Z,23.70
2023-04-22T14:35:48.842Z,23.70
2023-04-22T14:38:57.576Z,23.70
2023-04-22T14:42:09.014Z,23.70
2023-04-22T14:45:20.643Z,23.60
2023-04-22T14:48:31.798Z,23.70
2023-04-22T14:51:40.349Z,23.70
2023-04-22T14:54:52.058Z,23.70
2023-04-22T14:58:03.526Z,23.70
2023-04-22T15:01:11.669Z,23.70
2023-04-22T15:04:24.708Z,23.70
2023-04-22T15:07:34.237Z,23.70
2023-04-22T15:10:42.553Z,23.70
2023-04-22T15:13:52.639Z,23.70
2023-04-22T15:17:03.385Z,23.70
2023-04-22T15:20:13.140Z,23.70
2023-04-22T15:23:23.997Z,23.70
2023-04-22T15:26:36.350Z,23.60
2023-04-22T15:29:47.921Z,23.50
2023-04-22T15:32:57.744Z,23.50
2023-04-22T15:36:09.491Z,23.50
2023-04-22T15:39:18.923Z,23.50
2023-04-22T15:42:30.508Z,23.40
2023-04-22T15:45:40.084Z,23.50
2023-04-22T15:48:50.729Z,23.50
2023-04-22T15:52:01.659Z,23.50
2023-04-22T15:55:13.685Z,23.50
2023-04-22T15:58:25.082Z,23.50
2023-04-22T16:01:36.101Z,23.50
2023-04-22T16:04:44.746Z,23.50
2023-04-22T16:07:54.722Z,23.50
2023-04-22T16:11:02.710Z,23.50
2023-04-22T16:14:15.543Z,23.50
2023-04-22T16:17:27.898Z,23.50
2023-04-22T16:20:40.071Z,23.50
2023-04-22T16:23:53.506Z,23.60
2023-04-22T16:27:09.246Z,23.70
2023-04-22T16:30:23.237Z,23.80
2023-04-22T16:33:35.077Z,23.90
2023-04-22T16:36:45.139Z,24.10
2023-04-22T16:39:59.423Z,24.30
2023-04-22T16:43:10.948Z,24.40
2023-04-22T16:46:19.465Z,24.50
2023-04-22T16:49:28.183Z,24.60
2023-04-22T16:52:39.614Z,24.80
2023-04-22T16:55:50.971Z,24.80
2023-04-22T16:59:02.092Z,24.80
2023-04-22T17:02:11.455Z,24.70
2023-04-22T17:05:22.130Z,24.70
2023-04-22T17:08:32.971Z,24.80
2023-04-22T17:11:42.477Z,24.90
2023-04-22T17:14:53.152Z,25.10
2023-04-22T17:18:05.755Z,25.10
2023-04-22T17:24:31.379Z,25.00
2023-04-22T17:27:41.583Z,24.90
2023-04-22T17:30:51.453Z,24.70
2023-04-22T17:34:04.120Z,24.60
2023-04-22T17:37:14.282Z,24.60
2023-04-22T17:40:23.563Z,24.50
2023-04-22T17:43:36.808Z,24.70
2023-04-22T17:46:47.274Z,24.80
2023-04-22T17:49:58.452Z,25.00
2023-04-22T17:53:06.131Z,25.10
2023-04-22T17:59:32.066Z,24.90
2023-04-22T18:02:42.124Z,24.80
2023-04-22T18:05:50.251Z,24.70
2023-04-22T18:09:01.349Z,24.70
2023-04-22T18:12:14.348Z,24.80
2023-04-22T18:15:25.970Z,25.00
2023-04-22T18:18:35.999Z,25.10
2023-04-22T18:21:59.561Z,25.20
2023-04-22T18:25:04.774Z,25.10
2023-04-22T18:28:15.581Z,25.00
2023-04-22T18:31:28.741Z,24.90
2023-04-22T18:34:36.345Z,24.80
2023-04-22T18:37:46.437Z,24.70
2023-04-22T18:41:01.067Z,24.70
2023-04-22T18:44:12.766Z,24.60
2023-04-22T18:47:24.641Z,24.60
2023-04-22T18:50:35.083Z,24.70
2023-04-22T18:53:45.075Z,24.90
2023-04-22T18:56:59.560Z,25.00
2023-04-22T19:00:15.071Z,25.10
2023-04-22T19:03:27.572Z,25.10
2023-04-22T19:06:38.218Z,25.00
2023-04-22T19:09:52.022Z,24.90
2023-04-22T19:13:00.534Z,24.80
2023-04-22T19:16:11.660Z,24.70
2023-04-22T19:19:24.627Z,24.70
2023-04-22T19:22:36.917Z,24.60
2023-04-22T19:25:51.442Z,24.60
2023-04-22T19:29:04.664Z,24.90
2023-04-22T19:32:16.508Z,25.20
2023-04-22T19:35:27.203Z,25.50
2023-04-22T19:38:38.900Z,25.70
2023-04-22T19:41:51.062Z,25.70
2023-04-22T19:45:02.152Z,25.70
2023-04-22T19:48:15.278Z,25.60
2023-04-22T19:51:22.902Z,25.60
2023-04-22T19:54:32.421Z,25.60
2023-04-22T19:57:44.815Z,25.60
2023-04-22T20:00:56.536Z,25.50
2023-04-22T20:04:09.096Z,25.60
2023-04-22T20:07:21.050Z,25.60
2023-04-22T20:10:33.033Z,25.60
2023-04-22T20:13:48.411Z,25.70
2023-04-22T20:17:02.684Z,25.60
2023-04-22T20:20:16.858Z,25.60
2023-04-22T20:23:28.332Z,25.70
2023-04-22T20:26:38.497Z,25.70
2023-04-22T20:29:50.121Z,25.90
2023-04-22T20:33:02.438Z,26.00
2023-04-22T20:36:11.969Z,26.10
2023-04-22T20:39:20.377Z,26.00
2023-04-22T20:42:34.794Z,26.00
2023-04-22T20:45:48.760Z,25.90
2023-04-22T20:48:59.809Z,25.80
2023-04-22T20:52:11.132Z,25.70
2023-04-22T20:55:23.180Z,25.70
2023-04-22T20:58:33.984Z,25.60
2023-04-22T21:01:46.286Z,25.50
2023-04-22T21:04:56.183Z,25.50
2023-04-22T21:08:08.338Z,25.50
2023-04-22T21:11:22.801Z,25.50
2023-04-22T21:14:34.472Z,25.50
2023-04-22T21:17:46.404Z,25.50
2023-04-22T21:21:00.303Z,25.50
2023-04-22T21:24:13.287Z,25.60
2023-04-22T21:27:23.951Z,25.60
2023-04-22T21:30:38.041Z,25.70
2023-04-22T21:33:49.803Z,25.80
2023-04-22T21:37:00.688Z,26.00
2023-04-22T21:40:13.150Z,26.10
2023-04-22T21:43:24.482Z,26.00
2023-04-22T21:46:34.732Z,26.10
2023-04-22T21:49:44.836Z,26.10
2023-04-22T21:52:58.392Z,26.00
2023-04-22T21:56:08.756Z,25.90
2023-04-22T21:59:20.996Z,25.90
2023-04-22T22:02:36.352Z,25.90
2023-04-22T22:05:45.149Z,25.90
2023-04-22T22:08:57.773Z,25.90
2023-04-22T22:12:08.588Z,25.80
2023-04-22T22:15:20.796Z,25.80
2023-04-22T22:18:30.491Z,25.80
2023-04-22T22:21:42.255Z,25.80
2023-04-22T22:24:53.265Z,25.90
2023-04-22T22:28:06.642Z,26.00
2023-04-22T22:31:15.687Z,26.20
2023-04-22T22:34:23.862Z,26.30
2023-04-22T22:37:33.358Z,26.20
2023-04-22T22:40:45.602Z,26.20
2023-04-22T22:43:58.228Z,26.10
2023-04-22T22:47:13.109Z,25.90
2023-04-22T22:50:26.973Z,25.90
2023-04-22T22:53:39.334Z,25.70
2023-04-22T22:56:50.259Z,25.70
2023-04-22T23:00:02.000Z,25.60
2023-04-22T23:03:13.102Z,25.60
2023-04-22T23:06:22.570Z,25.60
2023-04-22T23:09:35.394Z,25.50
2023-04-22T23:12:48.818Z,25.50
2023-04-22T23:16:03.105Z,25.50
2023-04-22T23:19:14.861Z,25.40
2023-04-22T23:22:26.614Z,25.40
2023-04-22T23:25:40.909Z,25.50
2023-04-22T23:28:56.247Z,25.60
2023-04-22T23:32:06.894Z,25.70
2023-04-22T23:35:19.666Z,25.90
2023-04-22T23:38:30.086Z,25.90
2023-04-22T23:41:40.599Z,25.80
2023-04-22T23:44:52.137Z,25.70
2023-04-22T23:48:05.124Z,25.60
2023-04-22T23:51:18.251Z,25.50
2023-04-22T23:54:28.895Z,25.50
2023-04-22T23:57:44.749Z,25.50
